createdAt,value
2018-04-10T00:00:17.358Z,991.14
2018-04-10T00:01:17.384Z,991.15
2018-04-10T00:02:17.406Z,991.16
2018-04-10T00:03:17.425Z,991.18
2018-04-10T00:04:17.454Z,991.17
2018-04-10T00:05:17.479Z,991.20
2018-04-10T00:06:17.501Z,991.16
2018-04-10T00:07:17.526Z,991.13
2018-04-10T00:08:17.539Z,991.12
2018-04-10T00:09:17.566Z,991.16
2018-04-10T00:10:17.595Z,991.14
2018-04-10T00:11:17.613Z,991.11
2018-04-10T00:12:17.638Z,991.13
2018-04-10T00:13:17.668Z,991.12
2018-04-10T00:14:17.685Z,991.12
2018-04-10T00:15:17.714Z,991.13
2018-04-10T00:16:17.727Z,991.11
2018-04-10T00:17:17.770Z,991.13
2018-04-10T00:18:17.780Z,991.14
2018-04-10T00:19:17.813Z,991.07
2018-04-10T00:20:17.826Z,991.14
2018-04-10T00:21:17.848Z,991.13
2018-04-10T00:22:17.870Z,991.10
2018-04-10T00:23:17.892Z,991.18
2018-04-10T00:24:17.921Z,991.18
2018-04-10T00:25:17.945Z,991.18
2018-04-10T00:26:17.963Z,991.15
2018-04-10T00:27:17.994Z,991.21
2018-04-10T00:28:18.010Z,991.26
2018-04-10T00:29:18.030Z,991.19
2018-04-10T00:30:18.058Z,991.21
2018-04-10T00:31:18.077Z,991.23
2018-04-10T00:32:18.102Z,991.28
2018-04-10T00:33:18.126Z,991.27
2018-04-10T00:34:18.151Z,991.30
2018-04-10T00:35:18.173Z,991.28
2018-04-10T00:36:18.196Z,991.27
2018-04-10T00:37:18.220Z,991.29
2018-04-10T00:38:18.241Z,991.27
2018-04-10T00:39:18.264Z,991.25
2018-04-10T00:40:18.290Z,991.26
2018-04-10T00:41:18.305Z,991.27
2018-04-10T00:42:18.331Z,991.24
2018-04-10T00:43:18.368Z,991.21
2018-04-10T00:44:18.386Z,991.25
2018-04-10T00:45:18.397Z,991.21
2018-04-10T00:46:18.419Z,991.18
2018-04-10T00:47:18.452Z,991.17
2018-04-10T00:48:18.471Z,991.20
2018-04-10T00:49:18.492Z,991.18
2018-04-10T00:50:18.519Z,991.15
2018-04-10T00:51:18.544Z,991.17
2018-04-10T00:52:18.566Z,991.16
2018-04-10T00:53:18.605Z,991.14
2018-04-10T00:54:18.616Z,991.15
2018-04-10T00:55:18.635Z,991.18
2018-04-10T00:56:18.666Z,991.15
2018-04-10T00:57:18.684Z,991.19
2018-04-10T00:58:18.706Z,991.19
2018-04-10T00:59:18.725Z,991.25
2018-04-10T01:00:18.748Z,991.24
2018-04-10T01:01:18.771Z,991.24
2018-04-10T01:02:18.795Z,991.25
2018-04-10T01:03:18.819Z,991.20
2018-04-10T01:04:18.892Z,991.23
2018-04-10T01:05:18.864Z,991.20
2018-04-10T01:06:18.883Z,991.22
2018-04-10T01:07:18.909Z,991.19
2018-04-10T01:08:18.943Z,991.21
2018-04-10T01:09:18.956Z,991.19
2018-04-10T01:10:18.978Z,991.18
2018-04-10T01:11:19.007Z,991.17
2018-04-10T01:12:19.031Z,991.21
2018-04-10T01:13:19.048Z,991.21
2018-04-10T01:14:19.070Z,991.19
2018-04-10T01:15:19.095Z,991.17
2018-04-10T01:16:19.118Z,991.19
2018-04-10T01:17:19.144Z,991.19
2018-04-10T01:18:19.167Z,991.16
2018-04-10T01:19:19.184Z,991.15
2018-04-10T01:20:19.205Z,991.17
2018-04-10T01:21:19.230Z,991.20
2018-04-10T01:22:19.261Z,991.20
2018-04-10T01:23:19.279Z,991.20
2018-04-10T01:24:19.317Z,991.21
2018-04-10T01:25:19.321Z,991.22
2018-04-10T01:26:19.345Z,991.25
2018-04-10T01:27:19.369Z,991.23
2018-04-10T01:28:19.397Z,991.23
2018-04-10T01:29:19.416Z,991.23
2018-04-10T01:30:19.437Z,991.23
2018-04-10T01:31:19.459Z,991.22
2018-04-10T01:32:19.483Z,991.22
2018-04-10T01:33:19.504Z,991.18
2018-04-10T01:34:19.526Z,991.18
2018-04-10T01:35:19.551Z,991.19
2018-04-10T01:36:19.580Z,991.18
2018-04-10T01:37:19.597Z,991.22
2018-04-10T01:38:19.618Z,991.17
2018-04-10T01:39:19.645Z,991.14
2018-04-10T01:40:19.669Z,991.12
2018-04-10T01:41:19.692Z,991.10
2018-04-10T01:42:19.710Z,991.05
2018-04-10T01:43:19.733Z,991.03
2018-04-10T01:44:19.755Z,991.06
2018-04-10T01:45:19.778Z,991.06
2018-04-10T01:46:19.802Z,991.08
2018-04-10T01:47:19.825Z,991.08
2018-04-10T01:48:19.847Z,991.07
2018-04-10T01:49:19.875Z,991.09
2018-04-10T01:50:19.892Z,991.08
2018-04-10T01:51:19.912Z,991.06
2018-04-10T01:52:19.949Z,991.10
2018-04-10T01:53:19.971Z,991.06
2018-04-10T01:54:19.984Z,991.10
2018-04-10T01:55:20.005Z,991.07
2018-04-10T01:56:20.031Z,991.07
2018-04-10T01:57:20.044Z,991.05
2018-04-10T01:58:20.068Z,991.05
2018-04-10T01:59:20.099Z,991.06
2018-04-10T02:00:20.113Z,991.05
2018-04-10T02:01:20.139Z,991.03
2018-04-10T02:02:20.167Z,990.99
2018-04-10T02:03:20.186Z,990.99
2018-04-10T02:04:20.207Z,990.94
2018-04-10T02:05:20.229Z,990.95
2018-04-10T02:06:20.251Z,990.97
2018-04-10T02:07:20.282Z,990.96
2018-04-10T02:08:20.350Z,990.96
2018-04-10T02:09:23.285Z,991.01
2018-04-10T02:21:12.178Z,990.96
2018-04-10T02:23:26.637Z,990.90
2018-04-10T02:24:26.643Z,990.92
2018-04-10T02:26:21.162Z,990.95
2018-04-10T02:27:21.201Z,990.94
2018-04-10T02:29:15.631Z,990.96
2018-04-10T02:30:15.623Z,990.97
2018-04-10T02:31:15.652Z,990.99
2018-04-10T02:32:15.677Z,990.97
2018-04-10T02:33:15.694Z,991.00
2018-04-10T02:34:15.718Z,990.99
2018-04-10T02:35:15.738Z,990.98
2018-04-10T02:36:15.759Z,990.97
2018-04-10T02:37:15.784Z,990.97
2018-04-10T02:38:15.808Z,990.99
2018-04-10T02:39:15.826Z,990.98
2018-04-10T02:40:15.857Z,991.01
2018-04-10T02:41:15.880Z,991.01
2018-04-10T02:42:15.901Z,991.01
2018-04-10T02:43:15.919Z,990.99
2018-04-10T02:44:15.951Z,991.01
2018-04-10T02:45:15.960Z,991.04
2018-04-10T02:46:15.990Z,991.03
2018-04-10T02:47:16.012Z,990.99
2018-04-10T02:48:16.034Z,991.00
2018-04-10T02:49:16.054Z,990.99
2018-04-10T02:50:16.088Z,990.98
2018-04-10T02:51:16.104Z,990.98
2018-04-10T02:52:16.119Z,990.96
2018-04-10T02:53:16.148Z,990.94
2018-04-10T02:54:16.167Z,990.95
2018-04-10T02:55:16.181Z,990.97
2018-04-10T02:56:16.210Z,991.03
2018-04-10T02:57:16.235Z,991.03
2018-04-10T02:58:16.251Z,991.02
2018-04-10T02:59:16.281Z,991.04
2018-04-10T03:00:16.303Z,991.03
2018-04-10T03:01:16.321Z,991.03
2018-04-10T03:02:16.343Z,991.00
2018-04-10T03:03:16.427Z,990.99
2018-04-10T03:04:16.398Z,990.99
2018-04-10T03:05:16.408Z,990.99
2018-04-10T03:06:16.442Z,990.99
2018-04-10T03:07:16.496Z,990.98
2018-04-10T03:08:16.477Z,991.00
2018-04-10T03:09:16.571Z,990.98
2018-04-10T03:10:16.536Z,991.00
2018-04-10T03:11:16.668Z,991.03
2018-04-10T03:12:16.575Z,990.97
2018-04-10T03:13:16.713Z,990.97
2018-04-10T03:14:16.629Z,990.95
2018-04-10T03:15:16.990Z,990.98
2018-04-10T03:16:16.657Z,990.93
2018-04-10T03:17:16.682Z,990.95
2018-04-10T03:18:16.704Z,990.93
2018-04-10T03:19:16.730Z,990.94
2018-04-10T03:20:16.750Z,990.93
2018-04-10T03:21:16.776Z,990.93
2018-04-10T03:22:16.801Z,990.94
2018-04-10T03:23:16.815Z,990.96
2018-04-10T03:24:16.852Z,990.87
2018-04-10T03:25:16.864Z,990.86
2018-04-10T03:26:16.889Z,990.86
2018-04-10T03:27:16.908Z,990.84
2018-04-10T03:28:16.931Z,990.84
2018-04-10T03:29:16.957Z,990.85
2018-04-10T03:30:16.978Z,990.80
2018-04-10T03:31:16.996Z,990.81
2018-04-10T03:32:17.021Z,990.78
2018-04-10T03:33:17.043Z,990.77
2018-04-10T03:34:17.073Z,990.77
2018-04-10T03:35:17.088Z,990.71
2018-04-10T03:36:17.111Z,990.71
2018-04-10T03:37:17.150Z,990.67
2018-04-10T03:38:17.161Z,990.66
2018-04-10T03:39:17.186Z,990.63
2018-04-10T03:40:17.201Z,990.63
2018-04-10T03:41:17.229Z,990.57
2018-04-10T03:42:17.245Z,990.56
2018-04-10T03:43:17.270Z,990.51
2018-04-10T03:44:17.292Z,990.49
2018-04-10T03:45:17.317Z,990.44
2018-04-10T03:46:17.340Z,990.42
2018-04-10T03:47:17.358Z,990.43
2018-04-10T03:48:17.419Z,990.37
2018-04-10T03:49:17.402Z,990.39
2018-04-10T03:50:17.427Z,990.39
2018-04-10T03:51:17.453Z,990.34
2018-04-10T03:52:17.473Z,990.35
2018-04-10T03:53:17.496Z,990.32
2018-04-10T03:54:17.520Z,990.35
2018-04-10T03:55:17.540Z,990.30
2018-04-10T03:56:17.558Z,990.29
2018-04-10T03:57:17.585Z,990.31
2018-04-10T03:58:17.608Z,990.29
2018-04-10T03:59:17.625Z,990.29
2018-04-10T04:00:17.649Z,990.27
2018-04-10T04:01:17.677Z,990.27
2018-04-10T04:02:17.694Z,990.25
2018-04-10T04:03:17.720Z,990.22
2018-04-10T04:04:17.740Z,990.18
2018-04-10T04:05:17.760Z,990.15
2018-04-10T04:06:17.782Z,990.13
2018-04-10T04:07:17.806Z,990.11
2018-04-10T04:08:17.830Z,990.09
2018-04-10T04:09:17.853Z,990.06
2018-04-10T04:10:17.876Z,990.06
2018-04-10T04:11:17.896Z,990.05
2018-04-10T04:12:17.915Z,990.01
2018-04-10T04:13:17.934Z,990.00
2018-04-10T04:14:17.971Z,990.04
2018-04-10T04:15:17.989Z,990.06
2018-04-10T04:16:18.010Z,990.06
2018-04-10T04:17:18.033Z,990.02
2018-04-10T04:18:18.060Z,990.07
2018-04-10T04:19:18.071Z,990.01
2018-04-10T04:20:18.096Z,990.08
2018-04-10T04:21:18.116Z,990.10
2018-04-10T04:22:18.141Z,990.11
2018-04-10T04:23:18.169Z,990.11
2018-04-10T04:24:18.181Z,990.14
2018-04-10T04:25:18.213Z,990.17
2018-04-10T04:26:18.225Z,990.14
2018-04-10T04:27:18.253Z,990.15
2018-04-10T04:28:18.275Z,990.16
2018-04-10T04:29:18.300Z,990.16
2018-04-10T04:30:18.322Z,990.21
2018-04-10T04:31:18.340Z,990.22
2018-04-10T04:32:18.372Z,990.27
2018-04-10T04:33:18.411Z,990.30
2018-04-10T04:34:18.403Z,990.29
2018-04-10T04:35:18.425Z,990.32
2018-04-10T04:36:18.450Z,990.30
2018-04-10T04:37:18.476Z,990.30
2018-04-10T04:38:18.497Z,990.28
2018-04-10T04:39:18.518Z,990.34
2018-04-10T04:40:18.553Z,990.31
2018-04-10T04:41:18.559Z,990.34
2018-04-10T04:42:18.587Z,990.38
2018-04-10T04:43:18.608Z,990.34
2018-04-10T04:44:18.639Z,990.36
2018-04-10T04:45:18.648Z,990.35
2018-04-10T04:46:18.678Z,990.35
2018-04-10T04:47:18.694Z,990.33
2018-04-10T04:48:18.718Z,990.26
2018-04-10T04:49:18.735Z,990.24
2018-04-10T04:50:18.761Z,990.27
2018-04-10T04:51:18.784Z,990.25
2018-04-10T04:52:18.809Z,990.25
2018-04-10T04:53:18.841Z,990.24
2018-04-10T04:54:18.842Z,990.26
2018-04-10T04:55:18.900Z,990.26
2018-04-10T04:56:18.888Z,990.21
2018-04-10T04:57:18.910Z,990.19
2018-04-10T04:58:18.957Z,990.23
2018-04-10T04:59:18.960Z,990.18
2018-04-10T05:00:18.995Z,990.21
2018-04-10T05:01:18.994Z,990.25
2018-04-10T05:02:19.040Z,990.23
2018-04-10T05:03:19.044Z,990.24
2018-04-10T05:04:19.066Z,990.24
2018-04-10T05:05:19.088Z,990.30
2018-04-10T05:06:19.109Z,990.32
2018-04-10T05:07:19.136Z,990.28
2018-04-10T05:08:19.191Z,990.33
2018-04-10T05:09:19.188Z,990.32
2018-04-10T05:10:19.210Z,990.32
2018-04-10T05:11:19.220Z,990.28
2018-04-10T05:12:19.243Z,990.29
2018-04-10T05:13:19.264Z,990.30
2018-04-10T05:14:19.337Z,990.34
2018-04-10T05:15:19.308Z,990.35
2018-04-10T05:16:19.335Z,990.35
2018-04-10T05:17:19.412Z,990.36
2018-04-10T05:18:19.373Z,990.38
2018-04-10T05:19:19.407Z,990.37
2018-04-10T05:20:19.435Z,990.45
2018-04-10T05:21:19.450Z,990.46
2018-04-10T05:22:19.458Z,990.46
2018-04-10T05:23:19.485Z,990.45
2018-04-10T05:24:19.509Z,990.47
2018-04-10T05:25:19.529Z,990.49
2018-04-10T05:26:19.592Z,990.51
2018-04-10T05:27:19.573Z,990.51
2018-04-10T05:28:19.594Z,990.53
2018-04-10T05:29:19.618Z,990.54
2018-04-10T05:30:19.644Z,990.55
2018-04-10T05:31:19.662Z,990.58
2018-04-10T05:32:19.765Z,990.57
2018-04-10T05:33:19.709Z,990.58
2018-04-10T05:34:19.733Z,990.59
2018-04-10T05:35:19.746Z,990.58
2018-04-10T05:36:19.775Z,990.62
2018-04-10T05:37:19.800Z,990.61
2018-04-10T05:38:19.822Z,990.64
2018-04-10T05:39:19.857Z,990.66
2018-04-10T05:40:19.875Z,990.64
2018-04-10T05:41:19.878Z,990.69
2018-04-10T05:42:19.902Z,990.72
2018-04-10T05:43:19.928Z,990.75
2018-04-10T05:44:19.946Z,990.81
2018-04-10T05:45:19.968Z,990.81
2018-04-10T05:46:20.012Z,990.85
2018-04-10T05:47:20.016Z,990.85
2018-04-10T05:48:20.045Z,990.92
2018-04-10T05:49:20.054Z,990.88
2018-04-10T05:50:20.136Z,990.88
2018-04-10T05:51:20.151Z,990.84
2018-04-10T05:52:20.132Z,990.90
2018-04-10T05:53:20.160Z,990.90
2018-04-10T05:54:20.163Z,990.94
2018-04-10T05:55:20.190Z,990.98
2018-04-10T05:56:20.212Z,990.95
2018-04-10T05:57:20.231Z,990.97
2018-04-10T05:58:20.258Z,990.96
2018-04-10T05:59:20.300Z,990.98
2018-04-10T06:00:20.311Z,990.96
2018-04-10T06:01:20.322Z,991.01
2018-04-10T06:02:20.357Z,990.98
2018-04-10T06:03:20.447Z,991.04
2018-04-10T06:04:20.388Z,991.06
2018-04-10T06:05:20.413Z,991.09
2018-04-10T06:06:20.430Z,991.07
2018-04-10T06:07:20.456Z,991.11
2018-04-10T06:08:20.475Z,991.11
2018-04-10T06:09:20.506Z,991.15
2018-04-10T06:10:20.521Z,991.14
2018-04-10T06:11:20.542Z,991.19
2018-04-10T06:12:20.568Z,991.17
2018-04-10T06:13:20.585Z,991.17
2018-04-10T06:14:20.609Z,991.16
2018-04-10T06:15:20.630Z,991.18
2018-04-10T06:16:20.661Z,991.11
2018-04-10T06:17:20.679Z,991.18
2018-04-10T06:18:20.734Z,991.18
2018-04-10T06:19:20.721Z,991.14
2018-04-10T06:20:20.759Z,991.14
2018-04-10T06:21:20.787Z,991.19
2018-04-10T06:22:20.787Z,991.20
2018-04-10T06:23:20.823Z,991.15
2018-04-10T06:24:20.829Z,991.16
2018-04-10T06:25:20.848Z,991.18
2018-04-10T06:26:20.886Z,991.16
2018-04-10T06:27:20.907Z,991.17
2018-04-10T06:28:20.917Z,991.21
2018-04-10T06:29:20.949Z,991.18
2018-04-10T06:30:20.970Z,991.18
2018-04-10T06:31:21.015Z,991.19
2018-04-10T06:32:21.008Z,991.18
2018-04-10T06:33:21.051Z,991.17
2018-04-10T06:34:21.056Z,991.18
2018-04-10T06:35:21.082Z,991.20
2018-04-10T06:36:21.098Z,991.11
2018-04-10T06:37:21.126Z,991.13
2018-04-10T06:38:21.140Z,991.11
2018-04-10T06:39:21.168Z,991.12
2018-04-10T06:40:21.216Z,991.11
2018-04-10T06:41:21.210Z,991.15
2018-04-10T06:42:21.235Z,991.06
2018-04-10T06:43:21.259Z,991.07
2018-04-10T06:44:21.276Z,991.05
2018-04-10T06:45:21.300Z,991.07
2018-04-10T06:46:21.323Z,991.06
2018-04-10T06:47:21.352Z,991.03
2018-04-10T06:48:21.373Z,991.04
2018-04-10T06:49:21.396Z,991.03
2018-04-10T06:50:21.414Z,991.02
2018-04-10T06:51:21.443Z,991.01
2018-04-10T06:52:21.593Z,991.02
2018-04-10T06:53:21.483Z,991.01
2018-04-10T06:54:21.505Z,990.99
2018-04-10T06:55:21.532Z,990.99
2018-04-10T06:56:21.556Z,990.97
2018-04-10T06:57:21.583Z,990.99
2018-04-10T06:58:21.593Z,990.96
2018-04-10T06:59:21.631Z,990.99
2018-04-10T07:00:21.644Z,990.97
2018-04-10T07:01:21.668Z,990.93
2018-04-10T07:02:21.690Z,990.90
2018-04-10T07:03:21.712Z,990.90
2018-04-10T07:04:21.733Z,990.88
2018-04-10T07:05:21.756Z,990.90
2018-04-10T07:06:21.786Z,990.84
2018-04-10T07:07:21.803Z,990.86
2018-04-10T07:08:21.826Z,990.86
2018-04-10T07:09:21.849Z,990.84
2018-04-10T07:10:21.887Z,990.85
2018-04-10T07:11:21.891Z,990.86
2018-04-10T07:12:21.928Z,990.86
2018-04-10T07:13:21.989Z,990.86
2018-04-10T07:14:21.969Z,990.84
2018-04-10T07:15:21.993Z,990.86
2018-04-10T07:16:22.026Z,990.91
2018-04-10T07:17:22.073Z,990.89
2018-04-10T07:18:22.050Z,990.86
2018-04-10T07:19:22.156Z,990.89
2018-04-10T07:20:22.107Z,990.82
2018-04-10T07:21:22.220Z,990.82
2018-04-10T07:22:22.151Z,990.77
2018-04-10T07:23:22.195Z,990.79
2018-04-10T07:24:22.191Z,990.70
2018-04-10T07:25:22.231Z,990.66
2018-04-10T07:26:22.258Z,990.71
2018-04-10T07:27:22.264Z,990.66
2018-04-10T07:28:22.290Z,990.66
2018-04-10T07:29:22.354Z,990.58
2018-04-10T07:30:22.332Z,990.60
2018-04-10T07:31:22.354Z,990.61
2018-04-10T07:32:22.381Z,990.59
2018-04-10T07:33:22.412Z,990.59
2018-04-10T07:34:22.433Z,990.63
2018-04-10T07:35:22.469Z,990.66
2018-04-10T07:36:22.479Z,990.69
2018-04-10T07:37:22.509Z,990.73
2018-04-10T07:38:22.526Z,990.75
2018-04-10T07:39:22.553Z,990.76
2018-04-10T07:40:22.563Z,990.81
2018-04-10T07:41:22.627Z,990.80
2018-04-10T07:42:22.618Z,990.83
2018-04-10T07:43:22.644Z,990.78
2018-04-10T07:44:22.669Z,990.80
2018-04-10T07:45:22.697Z,990.82
2018-04-10T07:46:22.710Z,990.79
2018-04-10T07:47:22.740Z,990.81
2018-04-10T07:48:22.758Z,990.78
2018-04-10T07:49:22.784Z,990.75
2018-04-10T07:50:22.800Z,990.77
2018-04-10T07:51:22.853Z,990.77
2018-04-10T07:52:22.851Z,990.76
2018-04-10T07:53:22.873Z,990.78
2018-04-10T07:54:22.892Z,990.75
2018-04-10T07:55:22.921Z,990.78
2018-04-10T07:56:22.944Z,990.78
2018-04-10T07:57:22.970Z,990.77
2018-04-10T07:58:22.991Z,990.78
2018-04-10T07:59:23.014Z,990.84
2018-04-10T08:00:23.041Z,990.83
2018-04-10T08:01:23.067Z,990.84
2018-04-10T08:02:23.085Z,990.88
2018-04-10T08:03:23.139Z,990.89
2018-04-10T08:04:23.145Z,990.86
2018-04-10T08:05:23.157Z,990.92
2018-04-10T08:06:23.184Z,990.89
2018-04-10T08:07:23.212Z,990.95
2018-04-10T08:08:23.229Z,990.98
2018-04-10T08:09:23.254Z,990.96
2018-04-10T08:10:23.280Z,990.95
2018-04-10T08:11:23.303Z,990.99
2018-04-10T08:12:23.325Z,990.97
2018-04-10T08:13:23.355Z,990.96
2018-04-10T08:14:23.379Z,990.96
2018-04-10T08:15:23.397Z,990.96
2018-04-10T08:16:23.423Z,990.95
2018-04-10T08:17:23.453Z,990.98
2018-04-10T08:18:23.474Z,990.97
2018-04-10T08:19:23.504Z,991.01
2018-04-10T08:20:23.516Z,991.01
2018-04-10T08:21:23.540Z,991.03
2018-04-10T08:22:23.568Z,991.01
2018-04-10T08:23:23.600Z,990.99
2018-04-10T08:24:23.611Z,990.99
2018-04-10T08:25:23.644Z,990.96
2018-04-10T08:26:23.664Z,990.98
2018-04-10T08:27:23.685Z,990.90
2018-04-10T08:28:23.765Z,990.92
2018-04-10T08:29:23.883Z,990.90
2018-04-10T08:30:23.757Z,990.92
2018-04-10T08:31:23.782Z,990.93
2018-04-10T08:32:23.810Z,990.92
2018-04-10T08:33:23.825Z,990.91
2018-04-10T08:34:23.850Z,990.93
2018-04-10T08:35:23.874Z,990.96
2018-04-10T08:36:23.906Z,990.94
2018-04-10T08:37:23.924Z,990.94
2018-04-10T08:38:23.949Z,990.96
2018-04-10T08:39:23.975Z,990.96
2018-04-10T08:40:23.997Z,990.97
2018-04-10T08:41:24.017Z,990.99
2018-04-10T08:42:24.047Z,991.03
2018-04-10T08:43:24.076Z,990.99
2018-04-10T08:44:24.089Z,990.98
2018-04-10T08:45:24.128Z,991.01
2018-04-10T08:46:24.153Z,991.03
2018-04-10T08:47:24.167Z,991.01
2018-04-10T08:48:24.200Z,991.06
2018-04-10T08:49:24.218Z,991.05
2018-04-10T08:50:24.241Z,991.05
2018-04-10T08:51:24.265Z,991.09
2018-04-10T08:52:24.294Z,991.05
2018-04-10T08:53:24.320Z,991.04
2018-04-10T08:54:24.364Z,991.07
2018-04-10T08:55:24.361Z,991.06
2018-04-10T08:56:24.389Z,991.07
2018-04-10T08:57:24.408Z,991.06
2018-04-10T08:58:24.435Z,991.06
2018-04-10T08:59:24.460Z,991.07
2018-04-10T09:00:24.494Z,991.06
2018-04-10T09:01:24.512Z,991.09
2018-04-10T09:02:24.535Z,991.05
2018-04-10T09:03:24.564Z,991.05
2018-04-10T09:04:24.590Z,991.04
2018-04-10T09:05:24.611Z,990.99
2018-04-10T09:06:24.635Z,990.98
2018-04-10T09:07:24.665Z,991.01
2018-04-10T09:08:24.686Z,990.99
2018-04-10T09:09:24.711Z,990.98
2018-04-10T09:10:24.743Z,990.98
2018-04-10T09:11:24.765Z,990.96
2018-04-10T09:12:24.787Z,990.99
2018-04-10T09:13:24.838Z,990.99
2018-04-10T09:14:24.832Z,991.00
2018-04-10T09:15:24.856Z,991.04
2018-04-10T09:16:24.885Z,991.02
2018-04-10T09:17:24.909Z,990.99
2018-04-10T09:18:24.931Z,991.04
2018-04-10T09:19:24.961Z,991.02
2018-04-10T09:20:24.983Z,991.06
2018-04-10T09:21:25.004Z,991.02
2018-04-10T09:22:25.047Z,991.05
2018-04-10T09:23:25.060Z,991.02
2018-04-10T09:24:25.083Z,991.03
2018-04-10T09:25:25.135Z,991.01
2018-04-10T09:26:25.131Z,990.93
2018-04-10T09:27:25.153Z,990.97
2018-04-10T09:28:25.184Z,990.94
2018-04-10T09:29:25.203Z,990.94
2018-04-10T09:30:25.234Z,990.96
2018-04-10T09:31:25.252Z,990.91
2018-04-10T09:32:25.291Z,990.94
2018-04-10T09:33:25.311Z,990.86
2018-04-10T09:34:25.338Z,990.87
2018-04-10T09:35:25.354Z,990.83
2018-04-10T09:36:25.384Z,990.82
2018-04-10T09:37:25.413Z,990.75
2018-04-10T09:38:25.425Z,990.82
2018-04-10T09:39:25.467Z,990.77
2018-04-10T09:40:25.483Z,990.76
2018-04-10T09:41:25.501Z,990.74
2018-04-10T09:42:25.530Z,990.78
2018-04-10T09:43:25.560Z,990.80
2018-04-10T09:44:25.583Z,990.83
2018-04-10T09:45:25.609Z,990.84
2018-04-10T09:46:25.631Z,990.82
2018-04-10T09:47:25.655Z,990.85
2018-04-10T09:48:25.683Z,990.86
2018-04-10T09:49:25.703Z,990.91
2018-04-10T09:50:25.727Z,990.88
2018-04-10T09:51:25.755Z,990.87
2018-04-10T09:52:25.794Z,990.88
2018-04-10T09:53:25.801Z,990.88
2018-04-10T09:54:25.831Z,990.87
2018-04-10T09:55:25.852Z,990.89
2018-04-10T09:56:25.883Z,990.91
2018-04-10T09:57:25.905Z,990.90
2018-04-10T09:58:25.931Z,990.90
2018-04-10T09:59:25.955Z,990.99
2018-04-10T10:00:26.020Z,990.97
2018-04-10T10:01:26.004Z,991.01
2018-04-10T10:02:26.088Z,991.02
2018-04-10T10:03:26.056Z,991.04
2018-04-10T10:04:26.086Z,991.01
2018-04-10T10:05:26.105Z,991.05
2018-04-10T10:06:26.129Z,991.04
2018-04-10T10:07:26.161Z,991.00
2018-04-10T10:08:26.182Z,991.00
2018-04-10T10:09:26.226Z,991.00
2018-04-10T10:10:26.236Z,991.03
2018-04-10T10:11:26.263Z,991.05
2018-04-10T10:12:26.282Z,991.06
2018-04-10T10:13:26.309Z,991.04
2018-04-10T10:14:26.333Z,991.02
2018-04-10T10:15:26.360Z,991.02
2018-04-10T10:16:26.385Z,991.02
2018-04-10T10:17:26.412Z,990.98
2018-04-10T10:18:26.435Z,990.97
2018-04-10T10:19:26.458Z,991.00
2018-04-10T10:20:26.484Z,991.02
2018-04-10T10:21:26.510Z,991.01
2018-04-10T10:22:26.538Z,991.00
2018-04-10T10:23:26.570Z,991.00
2018-04-10T10:24:26.588Z,991.01
2018-04-10T10:25:26.613Z,991.03
2018-04-10T10:26:26.637Z,991.02
2018-04-10T10:27:26.658Z,991.02
2018-04-10T10:28:26.691Z,991.01
2018-04-10T10:29:26.713Z,990.97
2018-04-10T10:30:26.739Z,991.00
2018-04-10T10:31:26.765Z,990.99
2018-04-10T10:32:26.790Z,990.98
2018-04-10T10:33:26.816Z,990.97
2018-04-10T10:34:26.857Z,990.98
2018-04-10T10:35:26.873Z,990.94
2018-04-10T10:36:26.897Z,990.97
2018-04-10T10:37:26.917Z,990.97
2018-04-10T10:38:26.953Z,990.97
2018-04-10T10:39:27.016Z,990.93
2018-04-10T10:40:26.997Z,990.92
2018-04-10T10:41:27.020Z,990.88
2018-04-10T10:42:27.052Z,990.89
2018-04-10T10:43:27.076Z,990.88
2018-04-10T10:44:27.097Z,990.91
2018-04-10T10:45:27.126Z,990.93
2018-04-10T10:46:27.151Z,990.89
2018-04-10T10:47:27.179Z,990.85
2018-04-10T10:48:27.201Z,990.85
2018-04-10T10:49:27.270Z,990.87
2018-04-10T10:50:27.255Z,990.90
2018-04-10T10:51:27.274Z,990.90
2018-04-10T10:52:27.306Z,990.94
2018-04-10T10:53:27.336Z,990.91
2018-04-10T10:54:27.361Z,990.90
2018-04-10T10:55:27.384Z,990.87
2018-04-10T10:56:27.415Z,990.92
2018-04-10T10:57:27.436Z,990.91
2018-04-10T10:58:27.469Z,990.91
2018-04-10T10:59:27.490Z,990.91
2018-04-10T11:00:27.519Z,990.86
2018-04-10T11:01:27.546Z,990.84
2018-04-10T11:02:27.608Z,990.89
2018-04-10T11:03:27.598Z,990.87
2018-04-10T11:04:27.627Z,990.89
2018-04-10T11:05:27.661Z,990.86
2018-04-10T11:06:27.696Z,990.88
2018-04-10T11:07:27.696Z,990.84
2018-04-10T11:08:27.775Z,990.83
2018-04-10T11:09:27.752Z,990.83
2018-04-10T11:10:27.780Z,990.79
2018-04-10T11:11:27.819Z,990.76
2018-04-10T11:12:27.841Z,990.73
2018-04-10T11:13:27.864Z,990.77
2018-04-10T11:14:27.877Z,990.73
2018-04-10T11:15:27.921Z,990.75
2018-04-10T11:16:27.967Z,990.76
2018-04-10T11:17:27.960Z,990.74
2018-04-10T11:18:27.999Z,990.69
2018-04-10T11:19:28.016Z,990.70
2018-04-10T11:20:28.067Z,990.63
2018-04-10T11:21:28.075Z,990.68
2018-04-10T11:22:28.097Z,990.66
2018-04-10T11:23:28.185Z,990.66
2018-04-10T11:24:28.159Z,990.62
2018-04-10T11:25:28.176Z,990.59
2018-04-10T11:26:28.213Z,990.62
2018-04-10T11:27:28.232Z,990.62
2018-04-10T11:28:28.259Z,990.58
2018-04-10T11:29:28.281Z,990.56
2018-04-10T11:30:28.320Z,990.54
2018-04-10T11:31:28.342Z,990.49
2018-04-10T11:32:28.371Z,990.49
2018-04-10T11:33:28.391Z,990.44
2018-04-10T11:34:28.413Z,990.43
2018-04-10T11:35:28.438Z,990.40
2018-04-10T11:36:28.469Z,990.41
2018-04-10T11:37:28.500Z,990.44
2018-04-10T11:38:28.523Z,990.37
2018-04-10T11:39:28.551Z,990.44
2018-04-10T11:40:28.577Z,990.40
2018-04-10T11:41:28.658Z,990.41
2018-04-10T11:42:28.631Z,990.36
2018-04-10T11:43:28.661Z,990.33
2018-04-10T11:44:28.687Z,990.39
2018-04-10T11:45:28.713Z,990.34
2018-04-10T11:46:28.733Z,990.34
2018-04-10T11:47:28.791Z,990.32
2018-04-10T11:48:28.794Z,990.29
2018-04-10T11:49:28.816Z,990.30
2018-04-10T11:50:28.854Z,990.31
2018-04-10T11:51:28.870Z,990.29
2018-04-10T11:52:28.898Z,990.28
2018-04-10T11:53:28.944Z,990.26
2018-04-10T11:54:28.949Z,990.24
2018-04-10T11:55:28.994Z,990.29
2018-04-10T11:56:29.004Z,990.28
2018-04-10T11:57:29.033Z,990.28
2018-04-10T11:58:29.058Z,990.32
2018-04-10T11:59:29.087Z,990.30
2018-04-10T12:00:29.127Z,990.28
2018-04-10T12:01:29.138Z,990.21
2018-04-10T12:02:29.173Z,990.23
2018-04-10T12:03:29.199Z,990.25
2018-04-10T12:04:29.223Z,990.24
2018-04-10T12:05:29.250Z,990.21
2018-04-10T12:06:29.277Z,990.26
2018-04-10T12:07:29.305Z,990.25
2018-04-10T12:08:29.330Z,990.26
2018-04-10T12:09:29.357Z,990.25
2018-04-10T12:10:29.381Z,990.18
2018-04-10T12:11:29.411Z,990.17
2018-04-10T12:12:29.441Z,990.18
2018-04-10T12:13:29.465Z,990.14
2018-04-10T12:14:29.486Z,990.15
2018-04-10T12:15:29.519Z,990.15
2018-04-10T12:16:29.548Z,990.11
2018-04-10T12:17:29.570Z,990.06
2018-04-10T12:18:29.646Z,990.08
2018-04-10T12:19:29.640Z,990.10
2018-04-10T12:20:29.661Z,990.11
2018-04-10T12:21:29.684Z,990.06
2018-04-10T12:22:29.708Z,990.05
2018-04-10T12:23:29.738Z,990.13
2018-04-10T12:24:29.765Z,990.08
2018-04-10T12:25:29.859Z,990.08
2018-04-10T12:26:29.818Z,990.05
2018-04-10T12:27:29.852Z,990.01
2018-04-10T12:28:29.877Z,989.98
2018-04-10T12:29:29.903Z,989.99
2018-04-10T12:30:29.939Z,989.95
2018-04-10T12:31:29.958Z,989.87
2018-04-10T12:32:29.988Z,989.87
2018-04-10T12:33:30.015Z,989.88
2018-04-10T12:34:30.040Z,989.84
2018-04-10T12:35:30.073Z,989.83
2018-04-10T12:36:30.101Z,989.85
2018-04-10T12:37:30.126Z,989.81
2018-04-10T12:38:30.161Z,989.84
2018-04-10T12:39:30.198Z,989.84
2018-04-10T12:40:30.215Z,989.88
2018-04-10T12:41:30.260Z,989.85
2018-04-10T12:42:30.267Z,989.91